Time;durP1;ratioP1;P1;durP2;ratioP2;P2;SDS_P1;SDS_P2;PMS_P1;PMS_P2;Temp;Humidity;BMP_temperature;BMP_pressure;BME280_temperature;BME280_humidity;BME280_pressure;Samples;Min_cycle;Max_cycle;Signal;HPM_P1;HPM_P2
2024/01/29 00:01:56;;;;;;;;;;;;;;;4.42;95.80;102448.16;6274544;22;19960;-82
2024/01/29 00:04:21;;;;;;;;;;;;;;;4.46;95.52;102442.44;6273886;22;19968;-82
2024/01/29 00:06:47;;;;;;;;;;;;;;;4.50;95.65;102451.31;6274355;22;19996;-82
2024/01/29 00:09:12;;;;;;;;;;;;;;;4.51;95.84;102443.66;6274276;22;19911;-82
2024/01/29 00:11:37;;;;;;;;;;;;;;;4.52;95.76;102454.91;6247191;22;19911;-82
2024/01/29 00:14:02;;;;;;;;;;;;;;;4.53;95.78;102438.63;6273625;22;19965;-83
2024/01/29 00:16:27;;;;;;;;;;;;;;;4.54;95.66;102440.44;6247637;22;20377;-83
2024/01/29 00:18:53;;;;;;;;;;;;;;;4.54;95.99;102453.34;6246649;22;19922;-83
2024/01/29 00:21:18;;;;;;;;;;;;;;;4.54;95.99;102453.34;6274805;22;19965;-83
2024/01/29 00:23:43;;;;;;;;;;;;;;;4.52;95.66;102448.06;6274293;22;20341;-82
2024/01/29 00:26:09;;;;;;;;;;;;;;;4.52;95.66;102452.34;6274327;22;19906;-82
2024/01/29 00:28:34;;;;;;;;;;;;;;;4.52;95.56;102445.47;6274220;22;19907;-83
2024/01/29 00:30:59;;;;;;;;;;;;;;;4.56;95.56;102440.53;6246567;22;19941;-83
2024/01/29 00:33:24;;;;;;;;;;;;;;;4.58;95.46;102446.72;6247170;22;19907;-83
2024/01/29 00:35:50;;;;;;;;;;;;;;;4.56;95.43;102441.44;6247230;22;20243;-82
2024/01/29 00:38:15;;;;;;;;;;;;;;;4.55;95.58;102434.50;6246812;22;19929;-82
2024/01/29 00:40:40;;;;;;;;;;;;;;;4.53;95.33;102431.78;6246717;22;19915;-82
2024/01/29 00:43:05;;;;;;;;;;;;;;;4.52;95.93;102435.16;6246778;22;19914;-82
2024/01/29 00:45:31;;;;;;;;;;;;;;;4.52;95.73;102434.25;6273873;22;19980;-82
2024/01/29 00:47:56;;;;;;;;;;;;;;;4.51;95.88;102432.47;6274227;22;19933;-82
2024/01/29 00:50:21;;;;;;;;;;;;;;;4.52;95.68;102436.84;6245786;22;19911;-82
2024/01/29 00:52:47;;;;;;;;;;;;;;;4.49;95.88;102434.00;6273242;22;19961;-82
2024/01/29 00:55:12;;;;;;;;;;;;;;;4.48;96.06;102427.06;6274010;22;19919;-82
2024/01/29 00:57:38;;;;;;;;;;;;;;;4.49;95.86;102431.44;6247297;22;19947;-82
2024/01/29 01:00:04;;;;;;;;;;;;;;;4.48;95.60;102433.13;6246473;22;19903;-82
2024/01/29 01:02:29;;;;;;;;;;;;;;;4.48;95.76;102445.16;6246799;22;19904;-82
2024/01/29 01:04:55;;;;;;;;;;;;;;;4.48;95.66;102442.56;6246994;22;19910;-83
2024/01/29 01:07:20;;;;;;;;;;;;;;;4.48;95.96;102447.72;6273991;22;19903;-82
2024/01/29 01:09:45;;;;;;;;;;;;;;;4.47;95.61;102451.06;6247310;22;19903;-83
2024/01/29 01:12:10;;;;;;;;;;;;;;;4.47;95.85;102458.81;6274201;22;19914;-82
2024/01/29 01:14:36;;;;;;;;;;;;;;;4.46;96.22;102462.19;6274359;22;19903;-83
2024/01/29 01:17:01;;;;;;;;;;;;;;;4.46;95.90;102459.59;6274310;22;19903;-83
2024/01/29 01:19:26;;;;;;;;;;;;;;;4.44;95.98;102467.22;6247042;22;19910;-83
2024/01/29 01:21:51;;;;;;;;;;;;;;;4.42;95.79;102468.81;6274130;22;19953;-82
2024/01/29 01:24:17;;;;;;;;;;;;;;;4.40;96.28;102469.47;6273730;22;19949;-83
2024/01/29 01:26:42;;;;;;;;;;;;;;;4.38;96.01;102471.06;6246599;22;19903;-82
2024/01/29 01:29:07;;;;;;;;;;;;;;;4.35;96.38;102463.97;6246052;22;20318;-82
2024/01/29 01:31:32;;;;;;;;;;;;;;;4.32;96.13;102468.91;6273747;22;19938;-83
2024/01/29 01:33:58;;;;;;;;;;;;;;;4.28;96.36;102465.19;6273579;22;19930;-83
2024/01/29 01:36:23;;;;;;;;;;;;;;;4.25;96.47;102470.13;6246703;22;19944;-83
2024/01/29 01:38:48;;;;;;;;;;;;;;;4.22;96.95;102474.16;6273326;22;19913;-82
2024/01/29 01:41:13;;;;;;;;;;;;;;;4.20;96.63;102467.97;6273509;22;19903;-83
2024/01/29 01:43:39;;;;;;;;;;;;;;;4.18;96.82;102465.28;6246059;22;20245;-82
2024/01/29 01:46:04;;;;;;;;;;;;;;;4.16;96.62;102472.00;6273288;22;19941;-82
2024/01/29 01:48:34;;;;;;;;;;;;;;;4.12;96.76;102470.88;6273554;22;20285;-82
2024/01/29 01:51:00;;;;;;;;;;;;;;;4.10;97.11;102471.53;6273177;22;19903;-82
2024/01/29 01:53:25;;;;;;;;;;;;;;;4.07;97.17;102473.88;6246538;22;19903;-83
2024/01/29 01:55:51;;;;;;;;;;;;;;;4.06;96.97;102478.16;6273577;22;19941;-83
2024/01/29 01:58:18;;;;;;;;;;;;;;;4.02;97.14;102478.69;6273081;22;19903;-83
2024/01/29 02:00:43;;;;;;;;;;;;;;;4.00;97.39;102477.69;6246303;22;19946;-82
2024/01/29 02:03:09;;;;;;;;;;;;;;;3.96;97.67;102470.50;6246312;22;19907;-82
2024/01/29 02:05:34;;;;;;;;;;;;;;;3.93;97.42;102476.31;6273510;22;19914;-82
2024/01/29 02:07:59;;;;;;;;;;;;;;;3.91;97.64;102477.88;6245934;22;19903;-82
2024/01/29 02:10:24;;;;;;;;;;;;;;;3.90;97.98;102472.59;6273587;22;20318;-82
2024/01/29 02:12:50;;;;;;;;;;;;;;;3.88;97.94;102469.91;6272958;22;19914;-82
2024/01/29 02:15:15;;;;;;;;;;;;;;;3.87;97.73;102475.84;6246564;22;19903;-82
2024/01/29 02:17:40;;;;;;;;;;;;;;;3.85;98.33;102477.38;6245842;22;19907;-83
2024/01/29 02:20:06;;;;;;;;;;;;;;;3.84;97.84;102470.44;6273325;22;19903;-83
2024/01/29 02:22:32;;;;;;;;;;;;;;;3.83;98.15;102471.22;6272573;22;19978;-82
2024/01/29 02:24:57;;;;;;;;;;;;;;;3.80;98.40;102469.28;6273381;22;19938;-83
2024/01/29 02:27:22;;;;;;;;;;;;;;;3.79;98.25;102470.06;6273253;22;19907;-82
2024/01/29 02:29:47;;;;;;;;;;;;;;;3.78;98.39;102475.09;6273471;22;19903;-83
2024/01/29 02:32:14;;;;;;;;;;;;;;;3.77;98.75;102474.22;6272935;22;19911;-82
2024/01/29 02:34:40;;;;;;;;;;;;;;;3.77;98.65;102479.38;6245988;22;19903;-83
2024/01/29 02:37:05;;;;;;;;;;;;;;;3.77;98.88;102468.19;6272982;22;19960;-83
2024/01/29 02:39:30;;;;;;;;;;;;;;;3.78;98.65;102467.38;6246123;22;19903;-83
2024/01/29 02:41:55;;;;;;;;;;;;;;;3.76;98.66;102467.25;6272527;22;19903;-82
2024/01/29 02:44:20;;;;;;;;;;;;;;;3.76;98.78;102471.53;6245820;22;19904;-82
2024/01/29 02:46:46;;;;;;;;;;;;;;;3.75;99.20;102480.03;6273235;22;19931;-83
2024/01/29 02:49:11;;;;;;;;;;;;;;;3.74;99.07;102480.84;6271731;22;19909;-82
2024/01/29 02:51:36;;;;;;;;;;;;;;;3.73;99.16;102479.03;6245088;22;19911;-83
2024/01/29 02:54:01;;;;;;;;;;;;;;;3.70;99.17;102471.94;6273358;22;19950;-82
2024/01/29 02:56:27;;;;;;;;;;;;;;;3.68;99.04;102481.25;6272663;22;19903;-83
2024/01/29 02:58:52;;;;;;;;;;;;;;;3.66;99.18;102472.47;6245762;22;20269;-82
2024/01/29 03:01:18;;;;;;;;;;;;;;;3.64;99.46;102468.91;6273426;22;19969;-82
2024/01/29 03:03:43;;;;;;;;;;;;;;;3.60;99.38;102469.44;6273382;22;20352;-83
2024/01/29 03:06:08;;;;;;;;;;;;;;;3.58;99.31;102465.84;6273145;22;19903;-83
2024/01/29 03:08:34;;;;;;;;;;;;;;;3.55;99.48;102460.44;6273267;22;19903;-83
2024/01/29 03:10:59;;;;;;;;;;;;;;;3.52;99.44;102460.19;6273263;22;19903;-83
2024/01/29 03:13:24;;;;;;;;;;;;;;;3.48;99.72;102462.53;6273436;22;19918;-83
2024/01/29 03:15:50;;;;;;;;;;;;;;;3.47;99.89;102475.31;6247257;22;19907;-83
2024/01/29 03:18:15;;;;;;;;;;;;;;;3.46;99.69;102473.50;6274146;22;19985;-82
2024/01/29 03:20:40;;;;;;;;;;;;;;;3.42;99.88;102466.31;6248124;22;19962;-83
2024/01/29 03:23:07;;;;;;;;;;;;;;;3.41;100.00;102464.53;6274609;22;20689;-83
2024/01/29 03:25:32;;;;;;;;;;;;;;;3.40;100.00;102468.75;6274056;22;20330;-82
2024/01/29 03:27:57;;;;;;;;;;;;;;;3.40;100.00;102475.59;6247532;22;19982;-83
2024/01/29 03:30:22;;;;;;;;;;;;;;;3.41;100.00;102472.25;6247182;22;19945;-83
2024/01/29 03:32:49;;;;;;;;;;;;;;;3.41;100.00;102472.25;6274994;22;19911;-82
2024/01/29 03:35:15;;;;;;;;;;;;;;;3.40;100.00;102470.44;6274739;22;20345;-83
2024/01/29 03:37:43;;;;;;;;;;;;;;;3.38;100.00;102462.59;6274882;22;19970;-83
2024/01/29 03:40:08;;;;;;;;;;;;;;;3.39;100.00;102474.72;6248023;22;19914;-83
2024/01/29 03:42:33;;;;;;;;;;;;;;;3.39;100.00;102478.94;6274361;22;19911;-83
2024/01/29 03:44:59;;;;;;;;;;;;;;;3.39;100.00;102484.09;6274841;22;20242;-83
2024/01/29 03:47:24;;;;;;;;;;;;;;;3.39;100.00;102481.50;6274207;22;19986;-83
2024/01/29 03:49:49;;;;;;;;;;;;;;;3.38;100.00;102478.06;6248409;22;19907;-82
2024/01/29 03:52:14;;;;;;;;;;;;;;;3.39;100.00;102481.50;6274590;22;19911;-83
2024/01/29 03:54:40;;;;;;;;;;;;;;;3.39;100.00;102486.66;6246920;22;20322;-83
2024/01/29 03:57:05;;;;;;;;;;;;;;;3.39;100.00;102489.25;6274524;22;20356;-82
2024/01/29 03:59:32;;;;;;;;;;;;;;;3.38;100.00;102487.47;6248017;22;20215;-83
2024/01/29 04:01:58;;;;;;;;;;;;;;;3.38;100.00;102482.31;6274721;22;19982;-83
2024/01/29 04:04:23;;;;;;;;;;;;;;;3.38;100.00;102479.75;6274299;22;20235;-83
2024/01/29 04:06:48;;;;;;;;;;;;;;;3.38;100.00;102488.34;6273584;22;19910;-82
2024/01/29 04:09:20;;;;;;;;;;;;;;;3.38;100.00;102484.91;6275066;22;19926;-83
2024/01/29 04:11:46;;;;;;;;;;;;;;;3.38;100.00;102488.34;6274398;22;20265;-83
2024/01/29 04:14:11;;;;;;;;;;;;;;;3.37;100.00;102490.81;6273765;22;19903;-82
2024/01/29 04:16:36;;;;;;;;;;;;;;;3.37;100.00;102486.53;6247002;22;19907;-83
2024/01/29 04:19:02;;;;;;;;;;;;;;;3.39;100.00;102484.09;6273993;22;19911;-83
2024/01/29 04:21:27;;;;;;;;;;;;;;;3.40;100.00;102486.78;6275009;22;19908;-83
2024/01/29 04:23:52;;;;;;;;;;;;;;;3.39;100.00;102487.59;6273102;22;19907;-82
2024/01/29 04:26:18;;;;;;;;;;;;;;;3.38;100.00;102490.94;6273460;22;19907;-82
2024/01/29 04:28:43;;;;;;;;;;;;;;;3.40;100.00;102486.78;6246329;22;20468;-83
2024/01/29 04:31:08;;;;;;;;;;;;;;;3.42;100.00;102494.66;6274187;22;19954;-83
2024/01/29 04:33:33;;;;;;;;;;;;;;;3.41;100.00;102486.03;6274684;22;19911;-83
2024/01/29 04:35:59;;;;;;;;;;;;;;;3.43;100.00;102494.78;6245983;22;19953;-82
2024/01/29 04:38:24;;;;;;;;;;;;;;;3.44;100.00;102494.00;6273517;22;19907;-83
2024/01/29 04:40:49;;;;;;;;;;;;;;;3.46;100.00;102501.84;6246413;22;19907;-83
2024/01/29 04:43:14;;;;;;;;;;;;;;;3.46;100.00;102499.25;6246637;22;19921;-83
2024/01/29 04:45:40;;;;;;;;;;;;;;;3.47;100.00;102498.50;6246596;22;19930;-83
2024/01/29 04:48:05;;;;;;;;;;;;;;;3.47;100.00;102498.50;6274208;22;19907;-82
2024/01/29 04:50:30;;;;;;;;;;;;;;;3.46;100.00;102491.53;6246343;22;19910;-82
2024/01/29 04:52:56;;;;;;;;;;;;;;;3.43;100.00;102491.28;6273916;22;19945;-82
2024/01/29 04:55:21;;;;;;;;;;;;;;;3.40;100.00;102497.09;6274051;22;20284;-83
2024/01/29 04:57:46;;;;;;;;;;;;;;;3.39;100.00;102499.56;6274054;22;19903;-82
2024/01/29 05:00:12;;;;;;;;;;;;;;;3.37;100.00;102508.84;6274506;22;19903;-83
2024/01/29 05:02:38;;;;;;;;;;;;;;;3.35;100.00;102500.13;6273622;22;19975;-83
2024/01/29 05:05:03;;;;;;;;;;;;;;;3.31;100.00;102498.94;6274489;22;19931;-83
2024/01/29 05:07:28;;;;;;;;;;;;;;;3.30;100.00;102494.56;6273826;22;19903;-83
2024/01/29 05:09:54;;;;;;;;;;;;;;;3.29;100.00;102488.53;6247265;22;19903;-83
2024/01/29 05:12:19;;;;;;;;;;;;;;;3.29;100.00;102493.69;6246522;22;19914;-82
2024/01/29 05:14:44;;;;;;;;;;;;;;;3.29;100.00;102492.78;6245631;22;20219;-82
2024/01/29 05:17:10;;;;;;;;;;;;;;;3.29;100.00;102500.53;6246474;22;19929;-82
2024/01/29 05:19:35;;;;;;;;;;;;;;;3.27;100.00;102505.56;6274028;22;19967;-83
2024/01/29 05:22:01;;;;;;;;;;;;;;;3.26;100.00;102503.75;6274440;22;19907;-82
2024/01/29 05:24:27;;;;;;;;;;;;;;;3.26;100.00;102495.13;6246616;22;19913;-83
2024/01/29 05:26:52;;;;;;;;;;;;;;;3.26;100.00;102501.16;6273781;22;19978;-83
2024/01/29 05:29:17;;;;;;;;;;;;;;;3.23;100.00;102495.78;6273042;22;19899;-83
2024/01/29 05:31:42;;;;;;;;;;;;;;;3.21;100.00;102493.84;6246380;22;19918;-83
2024/01/29 05:34:08;;;;;;;;;;;;;;;3.18;100.00;102485.88;6273663;22;19904;-83
2024/01/29 05:36:33;;;;;;;;;;;;;;;3.17;100.00;102496.94;6246830;22;19969;-83
2024/01/29 05:38:58;;;;;;;;;;;;;;;3.15;100.00;102495.94;6272934;22;19903;-82
2024/01/29 05:41:23;;;;;;;;;;;;;;;3.12;100.00;102494.00;6274140;22;19953;-83
2024/01/29 05:43:48;;;;;;;;;;;;;;;3.12;100.00;102499.16;6273758;22;19986;-83
2024/01/29 05:46:14;;;;;;;;;;;;;;;3.12;100.00;102499.16;6273633;22;19910;-83
2024/01/29 05:48:39;;;;;;;;;;;;;;;3.12;100.00;102497.47;6273348;22;19907;-83
2024/01/29 05:51:04;;;;;;;;;;;;;;;3.14;100.00;102500.16;6274164;22;19903;-83
2024/01/29 05:53:30;;;;;;;;;;;;;;;3.15;100.00;102495.94;6273565;22;19907;-83
2024/01/29 05:55:55;;;;;;;;;;;;;;;3.14;100.00;102497.59;6245400;22;19934;-83
2024/01/29 05:58:21;;;;;;;;;;;;;;;3.16;100.00;102508.00;6273595;22;19910;-83
2024/01/29 06:00:46;;;;;;;;;;;;;;;3.17;100.00;102502.97;6272924;22;19903;-83
2024/01/29 06:03:12;;;;;;;;;;;;;;;3.20;100.00;102513.56;6273722;22;19957;-83
2024/01/29 06:05:38;;;;;;;;;;;;;;;3.21;100.00;102515.34;6246484;22;19983;-82
2024/01/29 06:08:03;;;;;;;;;;;;;;;3.22;100.00;102509.41;6246208;22;19972;-83
2024/01/29 06:10:28;;;;;;;;;;;;;;;3.26;100.00;102514.03;6271694;22;19915;-82
2024/01/29 06:12:54;;;;;;;;;;;;;;;3.29;100.00;102518.56;6273815;22;19915;-82
2024/01/29 06:15:19;;;;;;;;;;;;;;;3.31;100.00;102507.56;6246227;22;19903;-83
2024/01/29 06:17:44;;;;;;;;;;;;;;;3.35;100.00;102515.56;6245214;22;20317;-82
2024/01/29 06:20:10;;;;;;;;;;;;;;;3.38;100.00;102518.38;6245788;22;19907;-83
2024/01/29 06:22:35;;;;;;;;;;;;;;;3.41;100.00;102523.78;6246835;22;19903;-83
2024/01/29 06:25:00;;;;;;;;;;;;;;;3.44;100.00;102530.06;6273546;22;19956;-83
2024/01/29 06:27:26;;;;;;;;;;;;;;;3.45;100.00;102515.53;6272546;22;19903;-83
2024/01/29 06:29:51;;;;;;;;;;;;;;;3.47;100.00;102524.25;6273488;22;19903;-83
2024/01/29 06:32:16;;;;;;;;;;;;;;;3.48;100.00;102526.97;6245977;22;19907;-83
2024/01/29 06:34:41;;;;;;;;;;;;;;;3.50;100.00;102521.03;6273383;22;19903;-82
2024/01/29 06:37:07;;;;;;;;;;;;;;;3.50;100.00;102521.94;6245613;22;19934;-82
2024/01/29 06:39:32;;;;;;;;;;;;;;;3.50;100.00;102528.75;6245706;22;19907;-82
2024/01/29 06:41:58;;;;;;;;;;;;;;;3.50;100.00;102532.22;6245858;22;19906;-82
2024/01/29 06:44:23;;;;;;;;;;;;;;;3.51;100.00;102538.31;6273108;22;20296;-83
2024/01/29 06:46:48;;;;;;;;;;;;;;;3.51;100.00;102539.19;6273282;22;19913;-83
2024/01/29 06:49:24;;;;;;;;;;;;;;;3.51;100.00;102536.63;6273165;22;20337;-83
2024/01/29 06:51:49;;;;;;;;;;;;;;;3.51;100.00;102536.63;6274761;22;19908;-83
2024/01/29 06:54:15;;;;;;;;;;;;;;;3.52;100.00;102532.34;6248145;22;19903;-83
2024/01/29 06:56:40;;;;;;;;;;;;;;;3.52;100.00;102533.28;6247655;22;19910;-83
2024/01/29 06:59:05;;;;;;;;;;;;;;;3.52;100.00;102535.84;6247837;22;19907;-83
2024/01/29 07:01:32;;;;;;;;;;;;;;;3.53;100.00;102534.16;6274531;22;19961;-83
2024/01/29 07:03:58;;;;;;;;;;;;;;;3.53;100.00;102542.78;6275355;22;19930;-83
2024/01/29 07:06:24;;;;;;;;;;;;;;;3.53;100.00;102545.34;6274336;22;20164;-82
2024/01/29 07:08:49;;;;;;;;;;;;;;;3.53;100.00;102550.50;6274928;22;19903;-83
2024/01/29 07:11:15;;;;;;;;;;;;;;;3.53;100.00;102545.34;6247878;22;19907;-82
2024/01/29 07:13:40;;;;;;;;;;;;;;;3.55;100.00;102554.13;6247454;22;20336;-83
2024/01/29 07:16:06;;;;;;;;;;;;;;;3.55;100.00;102559.28;6247970;22;19903;-83
2024/01/29 07:18:31;;;;;;;;;;;;;;;3.56;100.00;102555.91;6275286;22;20212;-83
2024/01/29 07:20:56;;;;;;;;;;;;;;;3.56;100.00;102560.16;6275262;22;20353;-82
2024/01/29 07:23:22;;;;;;;;;;;;;;;3.55;100.00;102563.50;6247262;22;20310;-82
2024/01/29 07:25:47;;;;;;;;;;;;;;;3.54;100.00;102565.22;6247962;22;19903;-82
2024/01/29 07:28:12;;;;;;;;;;;;;;;3.55;100.00;102569.59;6247916;22;19914;-83
2024/01/29 07:30:37;;;;;;;;;;;;;;;3.55;100.00;102573.81;6247486;22;19929;-82
2024/01/29 07:33:03;;;;;;;;;;;;;;;3.55;100.00;102573.81;6274835;22;20318;-82
2024/01/29 07:35:29;;;;;;;;;;;;;;;3.54;100.00;102572.94;6274411;22;20006;-82
2024/01/29 07:37:54;;;;;;;;;;;;;;;3.56;100.00;102573.94;6274432;22;20310;-82
2024/01/29 07:40:19;;;;;;;;;;;;;;;3.57;100.00;102567.13;6273850;22;19930;-83
2024/01/29 07:42:45;;;;;;;;;;;;;;;3.58;100.00;102580.16;6274479;22;19911;-82
2024/01/29 07:45:11;;;;;;;;;;;;;;;3.62;100.00;102577.03;6274065;22;19977;-82
2024/01/29 07:47:36;;;;;;;;;;;;;;;3.68;100.00;102576.63;6274848;22;19934;-82
2024/01/29 07:50:01;;;;;;;;;;;;;;;3.75;100.00;102584.06;6274755;22;19895;-82
2024/01/29 07:52:27;;;;;;;;;;;;;;;3.79;100.00;102585.19;6275311;22;19914;-82
2024/01/29 07:54:52;;;;;;;;;;;;;;;3.84;100.00;102578.75;6274308;22;19922;-82
2024/01/29 07:57:17;;;;;;;;;;;;;;;3.88;100.00;102585.94;6274597;22;19907;-82
2024/01/29 07:59:45;;;;;;;;;;;;;;;3.96;100.00;102589.13;6247034;22;19907;-83
2024/01/29 08:02:11;;;;;;;;;;;;;;;4.02;100.00;102591.28;6247246;22;19910;-82
2024/01/29 08:04:36;;;;;;;;;;;;;;;4.07;100.00;102589.94;6274957;22;19903;-82
2024/01/29 08:07:01;;;;;;;;;;;;;;;4.10;100.00;102595.34;6274562;22;19914;-83
2024/01/29 08:09:26;;;;;;;;;;;;;;;4.15;100.00;102592.34;6246540;22;20230;-83
2024/01/29 08:11:52;;;;;;;;;;;;;;;4.21;100.00;102591.91;6275142;22;20000;-83
2024/01/29 08:14:17;;;;;;;;;;;;;;;4.25;100.00;102593.97;6274761;22;19910;-83
2024/01/29 08:16:42;;;;;;;;;;;;;;;4.30;100.00;102589.16;6274428;22;19907;-82
2024/01/29 08:19:08;;;;;;;;;;;;;;;4.33;100.00;102587.72;6273991;22;19895;-83
2024/01/29 08:21:33;;;;;;;;;;;;;;;4.40;100.00;102595.94;6274924;22;19903;-82
2024/01/29 08:23:58;;;;;;;;;;;;;;;4.47;100.00;102605.94;6274289;22;19926;-83
2024/01/29 08:26:23;;;;;;;;;;;;;;;4.55;100.00;102607.44;6274749;22;19929;-83
2024/01/29 08:28:49;;;;;;;;;;;;;;;4.61;100.00;102602.75;6246605;22;19992;-83
2024/01/29 08:31:14;;;;;;;;;;;;;;;4.69;100.00;102598.16;6246330;22;19907;-82
2024/01/29 08:33:42;;;;;;;;;;;;;;;4.82;100.00;102602.56;6274461;22;20344;-83
2024/01/29 08:36:07;;;;;;;;;;;;;;;5.05;100.00;102597.44;6274757;22;19903;-83
2024/01/29 08:38:32;;;;;;;;;;;;;;;5.31;100.00;102598.44;6274372;22;19945;-82
2024/01/29 08:40:57;;;;;;;;;;;;;;;5.46;100.00;102593.53;6246229;22;19907;-82
2024/01/29 08:43:23;;;;;;;;;;;;;;;5.60;100.00;102597.09;6246465;22;20013;-82
2024/01/29 08:45:49;;;;;;;;;;;;;;;5.77;100.00;102594.84;6274704;22;19918;-83
2024/01/29 08:48:14;;;;;;;;;;;;;;;5.93;100.00;102600.28;6246694;22;20318;-83
2024/01/29 08:50:39;;;;;;;;;;;;;;;6.23;100.00;102598.09;6247274;22;19911;-83
2024/01/29 08:53:04;;;;;;;;;;;;;;;6.70;100.00;102592.69;6273888;22;20009;-83
2024/01/29 08:55:30;;;;;;;;;;;;;;;7.07;100.00;102596.88;6274107;22;19913;-83
2024/01/29 08:57:56;;;;;;;;;;;;;;;7.28;100.00;102597.34;6246646;22;20353;-83
2024/01/29 09:00:22;;;;;;;;;;;;;;;7.27;100.00;102596.47;6247326;22;19907;-83
2024/01/29 09:02:48;;;;;;;;;;;;;;;7.13;99.88;102595.56;6273341;22;19964;-82
2024/01/29 09:05:13;;;;;;;;;;;;;;;6.98;99.81;102597.16;6247248;22;19911;-82
2024/01/29 09:07:38;;;;;;;;;;;;;;;6.91;100.00;102600.13;6274432;22;19982;-82
2024/01/29 09:10:03;;;;;;;;;;;;;;;7.04;100.00;102592.38;6246611;22;20288;-82
2024/01/29 09:12:29;;;;;;;;;;;;;;;7.35;99.26;102590.88;6245914;22;19907;-82
2024/01/29 09:14:54;;;;;;;;;;;;;;;7.64;99.28;102588.44;6273888;22;19903;-82
2024/01/29 09:17:19;;;;;;;;;;;;;;;7.70;98.07;102585.34;6274286;22;19906;-82
2024/01/29 09:19:45;;;;;;;;;;;;;;;7.53;97.65;102583.38;6274324;22;19977;-83
2024/01/29 09:22:11;;;;;;;;;;;;;;;7.29;97.71;102583.59;6247478;22;20318;-83
2024/01/29 09:24:36;;;;;;;;;;;;;;;7.08;97.98;102586.59;6274113;22;19903;-82
2024/01/29 09:27:01;;;;;;;;;;;;;;;6.83;98.44;102584.03;6273853;22;19986;-82
2024/01/29 09:29:26;;;;;;;;;;;;;;;6.64;98.61;102592.28;6274293;22;19914;-82
2024/01/29 09:31:51;;;;;;;;;;;;;;;6.50;98.92;102591.31;6274259;22;19911;-82
2024/01/29 09:34:17;;;;;;;;;;;;;;;6.40;99.53;102597.59;6274133;22;19903;-82
2024/01/29 09:36:42;;;;;;;;;;;;;;;6.38;99.79;102601.75;6274173;22;19903;-82
2024/01/29 09:39:07;;;;;;;;;;;;;;;6.53;100.00;102599.31;6247119;22;19960;-81
2024/01/29 09:41:33;;;;;;;;;;;;;;;6.76;100.00;102603.47;6246934;22;19903;-81
2024/01/29 09:44:00;;;;;;;;;;;;;;;6.93;100.00;102606.28;6246380;22;20257;-82
2024/01/29 09:46:26;;;;;;;;;;;;;;;7.03;100.00;102608.69;6274115;22;19911;-82
2024/01/29 09:48:51;;;;;;;;;;;;;;;7.07;99.54;102610.72;6274222;22;20239;-81
2024/01/29 09:51:16;;;;;;;;;;;;;;;7.03;99.64;102626.84;6273948;22;19929;-81
2024/01/29 09:53:42;;;;;;;;;;;;;;;6.99;99.38;102617.06;6246622;22;19903;-81
2024/01/29 09:56:07;;;;;;;;;;;;;;;6.93;99.48;102621.84;6246630;22;19903;-82
2024/01/29 09:58:33;;;;;;;;;;;;;;;6.89;99.83;102619.84;6273924;22;19952;-82
2024/01/29 10:00:58;;;;;;;;;;;;;;;6.86;99.77;102614.44;6273750;22;19933;-82
2024/01/29 10:03:27;;;;;;;;;;;;;;;6.84;100.00;102616.06;6273967;22;19914;-82
2024/01/29 10:05:53;;;;;;;;;;;;;;;6.83;100.00;102624.63;6274055;22;19987;-82
2024/01/29 10:08:19;;;;;;;;;;;;;;;6.83;100.00;102614.25;6246914;22;19907;-81
2024/01/29 10:10:44;;;;;;;;;;;;;;;6.84;100.00;102621.25;6273895;22;19979;-81
2024/01/29 10:13:10;;;;;;;;;;;;;;;6.84;100.00;102623.81;6273728;22;19929;-81
2024/01/29 10:15:35;;;;;;;;;;;;;;;6.86;100.00;102627.41;6273004;22;19903;-82
2024/01/29 10:18:01;;;;;;;;;;;;;;;6.88;100.00;102629.31;6245804;22;20313;-82
2024/01/29 10:20:27;;;;;;;;;;;;;;;6.91;100.00;102626.03;6273844;22;20219;-82
2024/01/29 10:22:59;;;;;;;;;;;;;;;6.94;100.00;102631.41;6273690;22;20345;-82
2024/01/29 10:25:25;;;;;;;;;;;;;;;6.98;100.00;102633.44;6273314;22;19985;-82
2024/01/29 10:27:50;;;;;;;;;;;;;;;7.01;100.00;102637.91;6273518;22;19929;-82
2024/01/29 10:30:15;;;;;;;;;;;;;;;7.02;100.00;102643.19;6246542;22;19934;-82
2024/01/29 10:32:41;;;;;;;;;;;;;;;7.06;100.00;102636.53;6274142;22;19907;-81
2024/01/29 10:35:06;;;;;;;;;;;;;;;7.08;100.00;102643.63;6273534;22;19903;-81
2024/01/29 10:37:31;;;;;;;;;;;;;;;7.10;100.00;102636.81;6273538;22;19974;-81
2024/01/29 10:40:00;;;;;;;;;;;;;;;7.14;100.00;102641.44;6273894;22;19903;-81
2024/01/29 10:42:27;;;;;;;;;;;;;;;7.18;100.00;102639.91;6273498;22;20242;-81
2024/01/29 10:44:52;;;;;;;;;;;;;;;7.22;100.00;102635.84;6274109;22;19953;-81
2024/01/29 10:47:24;;;;;;;;;;;;;;;7.28;100.00;102641.44;6273513;22;19969;-81
2024/01/29 10:49:52;;;;;;;;;;;;;;;7.34;100.00;102640.94;6246571;22;20245;-81
2024/01/29 10:52:18;;;;;;;;;;;;;;;7.39;100.00;102632.66;6273355;22;19907;-81
2024/01/29 10:54:44;;;;;;;;;;;;;;;7.44;100.00;102626.09;6273571;22;19930;-81
2024/01/29 10:57:10;;;;;;;;;;;;;;;7.48;100.00;102635.84;6273587;22;20334;-81
2024/01/29 10:59:38;;;;;;;;;;;;;;;7.52;100.00;102636.03;6273671;22;19976;-81
2024/01/29 11:02:04;;;;;;;;;;;;;;;7.58;100.00;102637.34;6246220;22;19909;-81
2024/01/29 11:04:30;;;;;;;;;;;;;;;7.64;100.00;102637.75;6273499;22;19981;-81
2024/01/29 11:07:05;;;;;;;;;;;;;;;7.71;100.00;102639.03;6273469;22;19903;-81
2024/01/29 11:09:31;;;;;;;;;;;;;;;7.77;100.00;102639.44;6274171;22;19946;-81
2024/01/29 11:11:56;;;;;;;;;;;;;;;7.83;100.00;102633.75;6273683;22;20314;-81
2024/01/29 11:14:22;;;;;;;;;;;;;;;7.89;100.00;102633.22;6273636;22;19954;-81
2024/01/29 11:16:47;;;;;;;;;;;;;;;7.94;100.00;102639.63;6273637;22;19903;-81
2024/01/29 11:19:13;;;;;;;;;;;;;;;7.98;100.00;102636.41;6273096;22;20257;-81
2024/01/29 11:21:48;;;;;;;;;;;;;;;8.04;100.00;102630.69;6245562;22;19993;-82
2024/01/29 11:24:13;;;;;;;;;;;;;;;8.08;100.00;102635.28;6273569;22;19947;-81
2024/01/29 11:26:39;;;;;;;;;;;;;;;8.13;100.00;102639.09;6272578;22;19907;-81
2024/01/29 11:29:04;;;;;;;;;;;;;;;8.16;100.00;102628.88;6246112;22;19907;-81
2024/01/29 11:31:51;;;;;;;;;;;;;;;8.20;100.00;102628.28;6272917;22;19960;-82
2024/01/29 11:34:24;;;;;;;;;;;;;;;8.24;100.00;102627.66;6273275;22;19903;-82
2024/01/29 11:36:53;;;;;;;;;;;;;;;8.29;100.00;102621.03;6274207;22;19903;-81
2024/01/29 11:39:22;;;;;;;;;;;;;;;8.31;100.00;102619.44;6274679;22;19931;-81
2024/01/29 11:41:51;;;;;;;;;;;;;;;8.38;100.00;102625.00;6275106;22;19953;-84
2024/01/29 11:44:21;;;;;;;;;;;;;;;8.43;100.00;102614.09;6274666;22;19937;-82
2024/01/29 11:46:48;;;;;;;;;;;;;;;8.50;100.00;102615.38;6275050;22;19914;-82
2024/01/29 11:49:22;;;;;;;;;;;;;;;8.52;100.00;102609.50;6275234;22;20500;-80
2024/01/29 11:51:47;;;;;;;;;;;;;;;8.59;100.00;102609.84;6275339;22;20223;-81
2024/01/29 11:54:12;;;;;;;;;;;;;;;8.64;100.00;102608.44;6275132;22;19910;-81
2024/01/29 11:56:37;;;;;;;;;;;;;;;8.68;100.00;102600.91;6247521;22;19910;-81
2024/01/29 11:59:03;;;;;;;;;;;;;;;8.73;100.00;102601.19;6275000;22;19914;-81
2024/01/29 12:01:31;;;;;;;;;;;;;;;8.76;100.00;102601.41;6247806;22;19910;-81
2024/01/29 12:03:57;;;;;;;;;;;;;;;8.80;100.00;102592.94;6274979;22;19910;-81
2024/01/29 12:06:22;;;;;;;;;;;;;;;8.83;100.00;102595.72;6275335;22;19930;-81
2024/01/29 12:08:48;;;;;;;;;;;;;;;8.87;100.00;102589.91;6275110;22;19978;-81
2024/01/29 12:11:15;;;;;;;;;;;;;;;8.92;100.00;102594.47;6275096;22;19911;-81
2024/01/29 12:13:40;;;;;;;;;;;;;;;8.94;100.00;102588.56;6275123;22;19942;-80
2024/01/29 12:16:07;;;;;;;;;;;;;;;8.97;100.00;102582.66;6247721;22;19957;-81
2024/01/29 12:18:33;;;;;;;;;;;;;;;9.00;100.00;102583.72;6274654;22;20406;-81
2024/01/29 12:20:58;;;;;;;;;;;;;;;9.04;100.00;102585.69;6274894;22;19970;-81
2024/01/29 12:23:24;;;;;;;;;;;;;;;9.08;100.00;102586.78;6274786;22;19942;-81
2024/01/29 12:25:56;;;;;;;;;;;;;;;9.13;100.00;102584.44;6247443;22;19903;-81
2024/01/29 12:28:21;;;;;;;;;;;;;;;9.16;100.00;102589.81;6247437;22;19968;-81
2024/01/29 12:30:57;;;;;;;;;;;;;;;9.20;100.00;102581.38;6274867;22;19974;-81
2024/01/29 12:33:29;;;;;;;;;;;;;;;9.26;100.00;102593.84;6274337;22;19914;-81